sensor_id;sensor_type;location;lat;lon;timestamp;pressure;altitude;pressure_sealevel;temperature;humidity
57708;BME280;43540;51.690;9.562;2023-08-06T00:00:22;98271.75;;;14.21;100.00
57708;BME280;43540;51.690;9.562;2023-08-06T00:02:49;98347.91;;;14.70;100.00
57708;BME280;43540;51.690;9.562;2023-08-06T00:05:16;98348.09;;;14.69;100.00
57708;BME280;43540;51.690;9.562;2023-08-06T00:07:48;98438.91;;;15.20;100.00
57708;BME280;43540;51.690;9.562;2023-08-06T00:10:17;98370.13;;;14.76;100.00
57708;BME280;43540;51.690;9.562;2023-08-06T00:12:44;98391.56;;;14.96;100.00
57708;BME280;43540;51.690;9.562;2023-08-06T00:15:12;98344.81;;;14.67;100.00
57708;BME280;43540;51.690;9.562;2023-08-06T00:17:39;98418.13;;;15.17;100.00
57708;BME280;43540;51.690;9.562;2023-08-06T00:20:06;98345.75;;;14.74;100.00
57708;BME280;43540;51.690;9.562;2023-08-06T00:22:35;98293.34;;;14.48;100.00
57708;BME280;43540;51.690;9.562;2023-08-06T00:25:02;98326.53;;;14.65;100.00
57708;BME280;43540;51.690;9.562;2023-08-06T00:27:29;98330.63;;;14.68;100.00
57708;BME280;43540;51.690;9.562;2023-08-06T00:29:56;98320.44;;;14.65;100.00
57708;BME280;43540;51.690;9.562;2023-08-06T00:32:23;98315.97;;;14.65;100.00
57708;BME280;43540;51.690;9.562;2023-08-06T00:34:50;98318.94;;;14.62;100.00
57708;BME280;43540;51.690;9.562;2023-08-06T00:37:17;98399.63;;;15.17;100.00
57708;BME280;43540;51.690;9.562;2023-08-06T00:39:44;98389.91;;;15.18;100.00
57708;BME280;43540;51.690;9.562;2023-08-06T00:42:12;98390.91;;;15.17;100.00
57708;BME280;43540;51.690;9.562;2023-08-06T00:44:39;98276.72;;;14.47;100.00
57708;BME280;43540;51.690;9.562;2023-08-06T00:47:07;98380.34;;;15.17;100.00
57708;BME280;43540;51.690;9.562;2023-08-06T00:49:38;98250.06;;;14.34;100.00
57708;BME280;43540;51.690;9.562;2023-08-06T00:52:06;98282.47;;;14.43;100.00
57708;BME280;43540;51.690;9.562;2023-08-06T00:54:34;98366.56;;;15.06;100.00
57708;BME280;43540;51.690;9.562;2023-08-06T00:57:02;98364.75;;;15.07;100.00
57708;BME280;43540;51.690;9.562;2023-08-06T00:59:30;98283.91;;;14.54;100.00
57708;BME280;43540;51.690;9.562;2023-08-06T01:01:57;98356.38;;;15.03;100.00
57708;BME280;43540;51.690;9.562;2023-08-06T01:04:24;98267.25;;;14.53;100.00
57708;BME280;43540;51.690;9.562;2023-08-06T01:07:33;98343.31;;;14.87;100.00
57708;BME280;43540;51.690;9.562;2023-08-06T01:10:37;98283.09;;;14.53;100.00
57708;BME280;43540;51.690;9.562;2023-08-06T01:15:46;98263.50;;;14.24;100.00
57708;BME280;43540;51.690;9.562;2023-08-06T01:18:14;98258.75;;;14.43;100.00
57708;BME280;43540;51.690;9.562;2023-08-06T01:20:41;98253.81;;;14.48;100.00
57708;BME280;43540;51.690;9.562;2023-08-06T01:23:08;98249.34;;;14.48;100.00
57708;BME280;43540;51.690;9.562;2023-08-06T01:25:49;98329.69;;;14.98;100.00
57708;BME280;43540;51.690;9.562;2023-08-06T01:28:32;98216.41;;;14.21;100.00
57708;BME280;43540;51.690;9.562;2023-08-06T01:31:02;98243.06;;;14.49;100.00
57708;BME280;43540;51.690;9.562;2023-08-06T01:33:32;98246.16;;;14.53;100.00
57708;BME280;43540;51.690;9.562;2023-08-06T01:36:01;98244.19;;;14.55;100.00
57708;BME280;43540;51.690;9.562;2023-08-06T01:38:29;98234.66;;;14.54;100.00
57708;BME280;43540;51.690;9.562;2023-08-06T01:40:55;98212.72;;;14.31;100.00
57708;BME280;43540;51.690;9.562;2023-08-06T01:43:22;98266.31;;;14.69;100.00
57708;BME280;43540;51.690;9.562;2023-08-06T01:45:49;98234.81;;;14.52;100.00
57708;BME280;43540;51.690;9.562;2023-08-06T01:48:16;98214.53;;;14.30;100.00
57708;BME280;43540;51.690;9.562;2023-08-06T01:50:43;98306.94;;;14.97;100.00
57708;BME280;43540;51.690;9.562;2023-08-06T01:53:10;98282.72;;;14.79;100.00
57708;BME280;43540;51.690;9.562;2023-08-06T01:55:37;98298.66;;;14.86;100.00
57708;BME280;43540;51.690;9.562;2023-08-06T01:58:06;98250.56;;;14.61;100.00
57708;BME280;43540;51.690;9.562;2023-08-06T02:00:33;98213.00;;;14.36;100.00
57708;BME280;43540;51.690;9.562;2023-08-06T02:03:00;98233.19;;;14.43;100.00
57708;BME280;43540;51.690;9.562;2023-08-06T02:05:27;98286.53;;;14.76;100.00
57708;BME280;43540;51.690;9.562;2023-08-06T02:07:54;98229.91;;;14.27;100.00
57708;BME280;43540;51.690;9.562;2023-08-06T02:10:20;98208.28;;;14.08;100.00
57708;BME280;43540;51.690;9.562;2023-08-06T02:12:47;98226.59;;;14.02;100.00
57708;BME280;43540;51.690;9.562;2023-08-06T02:15:14;98313.59;;;14.70;100.00
57708;BME280;43540;51.690;9.562;2023-08-06T02:17:41;98226.78;;;14.23;100.00
57708;BME280;43540;51.690;9.562;2023-08-06T02:20:11;98317.56;;;14.74;100.00
57708;BME280;43540;51.690;9.562;2023-08-06T02:22:44;98296.56;;;14.58;100.00
57708;BME280;43540;51.690;9.562;2023-08-06T02:25:11;98187.91;;;14.02;100.00
57708;BME280;43540;51.690;9.562;2023-08-06T02:27:38;98222.19;;;14.17;100.00
57708;BME280;43540;51.690;9.562;2023-08-06T02:30:05;98200.13;;;13.72;100.00
57708;BME280;43540;51.690;9.562;2023-08-06T02:32:32;98225.06;;;14.07;100.00
57708;BME280;43540;51.690;9.562;2023-08-06T02:35:02;98288.22;;;14.55;100.00
57708;BME280;43540;51.690;9.562;2023-08-06T02:37:29;98293.94;;;14.58;100.00
57708;BME280;43540;51.690;9.562;2023-08-06T02:39:55;98280.94;;;14.57;100.00
57708;BME280;43540;51.690;9.562;2023-08-06T02:42:22;98189.41;;;13.97;100.00
57708;BME280;43540;51.690;9.562;2023-08-06T02:44:50;98266.69;;;14.66;100.00
57708;BME280;43540;51.690;9.562;2023-08-06T02:47:16;98176.31;;;14.11;100.00
57708;BME280;43540;51.690;9.562;2023-08-06T02:49:43;98155.47;;;14.02;100.00
57708;BME280;43540;51.690;9.562;2023-08-06T02:52:10;98201.41;;;14.22;100.00
57708;BME280;43540;51.690;9.562;2023-08-06T02:54:37;98170.50;;;14.16;100.00
57708;BME280;43540;51.690;9.562;2023-08-06T02:57:05;98247.28;;;14.59;100.00
57708;BME280;43540;51.690;9.562;2023-08-06T02:59:32;98146.75;;;14.01;100.00
57708;BME280;43540;51.690;9.562;2023-08-06T03:01:59;98189.25;;;14.21;100.00
57708;BME280;43540;51.690;9.562;2023-08-06T03:04:26;98147.72;;;13.77;100.00
57708;BME280;43540;51.690;9.562;2023-08-06T03:06:53;98226.06;;;14.29;100.00
57708;BME280;43540;51.690;9.562;2023-08-06T03:09:20;98106.78;;;13.75;100.00
57708;BME280;43540;51.690;9.562;2023-08-06T03:11:47;98104.31;;;13.73;100.00
57708;BME280;43540;51.690;9.562;2023-08-06T03:14:14;98138.22;;;13.99;100.00
57708;BME280;43540;51.690;9.562;2023-08-06T03:16:43;98210.44;;;14.50;100.00
57708;BME280;43540;51.690;9.562;2023-08-06T03:19:10;98111.56;;;13.94;100.00
57708;BME280;43540;51.690;9.562;2023-08-06T03:21:37;98118.84;;;14.07;100.00
57708;BME280;43540;51.690;9.562;2023-08-06T03:24:04;98117.63;;;13.94;100.00
57708;BME280;43540;51.690;9.562;2023-08-06T03:26:31;98102.84;;;13.93;100.00
57708;BME280;43540;51.690;9.562;2023-08-06T03:28:58;98147.59;;;14.16;100.00
57708;BME280;43540;51.690;9.562;2023-08-06T03:31:25;98128.06;;;14.11;100.00
57708;BME280;43540;51.690;9.562;2023-08-06T03:33:51;98114.00;;;13.95;100.00
57708;BME280;43540;51.690;9.562;2023-08-06T03:36:18;98131.38;;;14.05;100.00
57708;BME280;43540;51.690;9.562;2023-08-06T03:38:45;98205.09;;;14.59;100.00
57708;BME280;43540;51.690;9.562;2023-08-06T03:41:12;98125.66;;;14.01;100.00
57708;BME280;43540;51.690;9.562;2023-08-06T03:43:39;98178.09;;;14.34;100.00
57708;BME280;43540;51.690;9.562;2023-08-06T03:46:06;98054.59;;;13.55;100.00
57708;BME280;43540;51.690;9.562;2023-08-06T03:48:32;98075.53;;;13.72;100.00
57708;BME280;43540;51.690;9.562;2023-08-06T03:50:59;98109.03;;;14.01;100.00
57708;BME280;43540;51.690;9.562;2023-08-06T03:53:28;98199.38;;;14.55;100.00
57708;BME280;43540;51.690;9.562;2023-08-06T03:55:55;98172.91;;;14.40;100.00
57708;BME280;43540;51.690;9.562;2023-08-06T03:58:26;98133.53;;;14.24;100.00
57708;BME280;43540;51.690;9.562;2023-08-06T04:01:00;98105.00;;;13.67;100.00
57708;BME280;43540;51.690;9.562;2023-08-06T04:03:26;98035.06;;;13.19;100.00
57708;BME280;43540;51.690;9.562;2023-08-06T04:05:54;98111.41;;;13.73;100.00
57708;BME280;43540;51.690;9.562;2023-08-06T04:08:21;98180.56;;;14.12;100.00
57708;BME280;43540;51.690;9.562;2023-08-06T04:10:52;98124.38;;;13.74;100.00
57708;BME280;43540;51.690;9.562;2023-08-06T04:13:19;98201.78;;;14.19;100.00
57708;BME280;43540;51.690;9.562;2023-08-06T04:15:46;98119.81;;;13.68;100.00
57708;BME280;43540;51.690;9.562;2023-08-06T04:18:17;98109.34;;;13.60;100.00
57708;BME280;43540;51.690;9.562;2023-08-06T04:20:45;98098.28;;;13.42;100.00
57708;BME280;43540;51.690;9.562;2023-08-06T04:23:12;98208.88;;;14.18;100.00
57708;BME280;43540;51.690;9.562;2023-08-06T04:25:42;98061.88;;;13.14;100.00
57708;BME280;43540;51.690;9.562;2023-08-06T04:28:09;98213.19;;;14.11;100.00
57708;BME280;43540;51.690;9.562;2023-08-06T04:30:37;98120.22;;;13.57;100.00
57708;BME280;43540;51.690;9.562;2023-08-06T04:33:04;98211.06;;;14.07;100.00
57708;BME280;43540;51.690;9.562;2023-08-06T04:35:31;98097.63;;;13.40;100.00
57708;BME280;43540;51.690;9.562;2023-08-06T04:37:58;98077.31;;;13.25;100.00
57708;BME280;43540;51.690;9.562;2023-08-06T04:40:25;98198.38;;;14.10;100.00
57708;BME280;43540;51.690;9.562;2023-08-06T04:42:52;98177.41;;;13.94;100.00
57708;BME280;43540;51.690;9.562;2023-08-06T04:45:19;98141.41;;;13.63;100.00
57708;BME280;43540;51.690;9.562;2023-08-06T04:47:46;98115.38;;;13.46;100.00
57708;BME280;43540;51.690;9.562;2023-08-06T04:50:13;98161.91;;;13.76;100.00
57708;BME280;43540;51.690;9.562;2023-08-06T04:52:40;98206.47;;;14.09;100.00
57708;BME280;43540;51.690;9.562;2023-08-06T04:55:07;98118.47;;;13.49;100.00
57708;BME280;43540;51.690;9.562;2023-08-06T04:57:34;98172.38;;;13.84;100.00
57708;BME280;43540;51.690;9.562;2023-08-06T05:00:01;98214.19;;;14.10;100.00
57708;BME280;43540;51.690;9.562;2023-08-06T05:02:28;98116.66;;;13.50;100.00
57708;BME280;43540;51.690;9.562;2023-08-06T05:04:58;98117.59;;;13.57;100.00
57708;BME280;43540;51.690;9.562;2023-08-06T05:07:25;98118.72;;;13.62;100.00
57708;BME280;43540;51.690;9.562;2023-08-06T05:09:52;98098.53;;;13.55;100.00
57708;BME280;43540;51.690;9.562;2023-08-06T05:12:19;98116.91;;;13.63;100.00
57708;BME280;43540;51.690;9.562;2023-08-06T05:14:47;98131.28;;;13.75;100.00
57708;BME280;43540;51.690;9.562;2023-08-06T05:17:14;98102.63;;;13.57;100.00
57708;BME280;43540;51.690;9.562;2023-08-06T05:19:41;98208.88;;;14.18;100.00
57708;BME280;43540;51.690;9.562;2023-08-06T05:22:08;98080.56;;;13.35;100.00
57708;BME280;43540;51.690;9.562;2023-08-06T05:24:35;98203.47;;;14.12;100.00
57708;BME280;43540;51.690;9.562;2023-08-06T05:27:02;98098.81;;;13.37;100.00
57708;BME280;43540;51.690;9.562;2023-08-06T05:29:29;98164.59;;;13.91;100.00
57708;BME280;43540;51.690;9.562;2023-08-06T05:31:55;98029.84;;;13.10;100.00
57708;BME280;43540;51.690;9.562;2023-08-06T05:34:23;98098.47;;;13.63;100.00
57708;BME280;43540;51.690;9.562;2023-08-06T05:36:50;98200.47;;;14.38;100.00
57708;BME280;43540;51.690;9.562;2023-08-06T05:39:17;98095.41;;;13.74;100.00
57708;BME280;43540;51.690;9.562;2023-08-06T05:41:44;98138.34;;;13.98;100.00
57708;BME280;43540;51.690;9.562;2023-08-06T05:44:11;98174.75;;;14.40;100.00
57708;BME280;43540;51.690;9.562;2023-08-06T05:46:38;98182.72;;;14.55;100.00
57708;BME280;43540;51.690;9.562;2023-08-06T05:49:05;98095.25;;;14.13;100.00
57708;BME280;43540;51.690;9.562;2023-08-06T05:51:33;98111.81;;;14.22;100.00
57708;BME280;43540;51.690;9.562;2023-08-06T05:54:23;98064.44;;;13.99;100.00
57708;BME280;43540;51.690;9.562;2023-08-06T06:00:45;98121.06;;;14.56;100.00
57708;BME280;43540;51.690;9.562;2023-08-06T06:03:12;98196.31;;;15.11;100.00
57708;BME280;43540;51.690;9.562;2023-08-06T06:05:39;98196.31;;;15.11;100.00
57708;BME280;43540;51.690;9.562;2023-08-06T06:08:06;98116.06;;;14.61;100.00
57708;BME280;43540;51.690;9.562;2023-08-06T06:10:33;98120.06;;;14.71;100.00
57708;BME280;43540;51.690;9.562;2023-08-06T06:13:00;98187.34;;;15.26;100.00
57708;BME280;43540;51.690;9.562;2023-08-06T06:15:27;98184.28;;;15.38;100.00
57708;BME280;43540;51.690;9.562;2023-08-06T06:17:54;98193.63;;;15.55;100.00
57708;BME280;43540;51.690;9.562;2023-08-06T06:20:21;98074.09;;;14.95;100.00
57708;BME280;43540;51.690;9.562;2023-08-06T06:22:47;98106.56;;;15.11;100.00
57708;BME280;43540;51.690;9.562;2023-08-06T06:25:15;98060.47;;;14.92;100.00
57708;BME280;43540;51.690;9.562;2023-08-06T06:27:41;98079.53;;;15.08;100.00
57708;BME280;43540;51.690;9.562;2023-08-06T06:30:09;98174.16;;;15.77;100.00
57708;BME280;43540;51.690;9.562;2023-08-06T06:32:36;98082.03;;;15.31;100.00
57708;BME280;43540;51.690;9.562;2023-08-06T06:35:03;98139.81;;;15.77;100.00
57708;BME280;43540;51.690;9.562;2023-08-06T06:37:31;98079.41;;;15.53;100.00
57708;BME280;43540;51.690;9.562;2023-08-06T06:39:59;98164.44;;;16.20;100.00
57708;BME280;43540;51.690;9.562;2023-08-06T06:42:26;98169.88;;;16.40;100.00
57708;BME280;43540;51.690;9.562;2023-08-06T06:44:54;98050.19;;;15.76;100.00
57708;BME280;43540;51.690;9.562;2023-08-06T06:47:22;98028.94;;;15.62;100.00
57708;BME280;43540;51.690;9.562;2023-08-06T06:49:51;98061.53;;;15.98;100.00
57708;BME280;43540;51.690;9.562;2023-08-06T06:52:19;98136.22;;;16.62;100.00
57708;BME280;43540;51.690;9.562;2023-08-06T06:54:46;98159.22;;;16.83;100.00
57708;BME280;43540;51.690;9.562;2023-08-06T06:57:13;98078.97;;;16.48;100.00
57708;BME280;43540;51.690;9.562;2023-08-06T07:00:01;98133.78;;;16.89;100.00
57708;BME280;43540;51.690;9.562;2023-08-06T07:03:01;98062.31;;;16.47;100.00
57708;BME280;43540;51.690;9.562;2023-08-06T07:05:29;98051.72;;;16.54;100.00
57708;BME280;43540;51.690;9.562;2023-08-06T07:07:56;97991.16;;;16.25;100.00
57708;BME280;43540;51.690;9.562;2023-08-06T07:10:23;98122.09;;;17.11;100.00
57708;BME280;43540;51.690;9.562;2023-08-06T07:12:49;98035.50;;;16.57;100.00
57708;BME280;43540;51.690;9.562;2023-08-06T07:15:16;98139.31;;;17.42;100.00
57708;BME280;43540;51.690;9.562;2023-08-06T07:17:44;98049.69;;;16.91;100.00
57708;BME280;43540;51.690;9.562;2023-08-06T07:20:11;98086.84;;;17.11;100.00
57708;BME280;43540;51.690;9.562;2023-08-06T07:22:37;98136.25;;;17.38;100.00
57708;BME280;43540;51.690;9.562;2023-08-06T07:25:04;98136.00;;;17.33;100.00
57708;BME280;43540;51.690;9.562;2023-08-06T07:27:32;98141.72;;;17.30;100.00
57708;BME280;43540;51.690;9.562;2023-08-06T07:29:59;98050.88;;;16.82;100.00
57708;BME280;43540;51.690;9.562;2023-08-06T07:32:26;98024.72;;;16.59;100.00
57708;BME280;43540;51.690;9.562;2023-08-06T07:34:54;98086.00;;;17.03;100.00
57708;BME280;43540;51.690;9.562;2023-08-06T07:37:29;98069.47;;;16.95;100.00
57708;BME280;43540;51.690;9.562;2023-08-06T07:39:56;98059.88;;;16.87;100.00
57708;BME280;43540;51.690;9.562;2023-08-06T07:42:23;98138.53;;;17.48;100.00
57708;BME280;43540;51.690;9.562;2023-08-06T07:44:54;98049.69;;;16.91;100.00
57708;BME280;43540;51.690;9.562;2023-08-06T07:47:21;98058.53;;;17.04;100.00
57708;BME280;43540;51.690;9.562;2023-08-06T07:49:48;98045.44;;;16.96;100.00
57708;BME280;43540;51.690;9.562;2023-08-06T07:52:15;98078.28;;;17.09;100.00
57708;BME280;43540;51.690;9.562;2023-08-06T07:54:42;98067.69;;;17.02;100.00
57708;BME280;43540;51.690;9.562;2023-08-06T07:57:09;98048.47;;;16.87;100.00
57708;BME280;43540;51.690;9.562;2023-08-06T07:59:35;98099.28;;;17.17;100.00
57708;BME280;43540;51.690;9.562;2023-08-06T08:02:02;98056.97;;;16.75;100.00
57708;BME280;43540;51.690;9.562;2023-08-06T08:04:30;98069.81;;;16.78;100.00
57708;BME280;43540;51.690;9.562;2023-08-06T08:06:57;98129.31;;;17.44;100.00
57708;BME280;43540;51.690;9.562;2023-08-06T08:09:24;98108.53;;;17.41;100.00
57708;BME280;43540;51.690;9.562;2023-08-06T08:11:51;98099.72;;;17.27;100.00
57708;BME280;43540;51.690;9.562;2023-08-06T08:14:19;98043.63;;;16.97;100.00
57708;BME280;43540;51.690;9.562;2023-08-06T08:16:46;98094.25;;;17.35;100.00
57708;BME280;43540;51.690;9.562;2023-08-06T08:19:13;98052.75;;;16.88;100.00
57708;BME280;43540;51.690;9.562;2023-08-06T08:21:40;98126.06;;;17.42;100.00
57708;BME280;43540;51.690;9.562;2023-08-06T08:24:12;98126.69;;;17.44;100.00
57708;BME280;43540;51.690;9.562;2023-08-06T08:26:39;98040.88;;;16.70;100.00
57708;BME280;43540;51.690;9.562;2023-08-06T08:29:06;98049.56;;;16.64;100.00
57708;BME280;43540;51.690;9.562;2023-08-06T08:31:36;98069.59;;;16.73;100.00
57708;BME280;43540;51.690;9.562;2023-08-06T08:34:07;98048.22;;;16.75;100.00
57708;BME280;43540;51.690;9.562;2023-08-06T08:36:34;98061.75;;;16.93;100.00
57708;BME280;43540;51.690;9.562;2023-08-06T08:39:01;98022.25;;;16.92;100.00
57708;BME280;43540;51.690;9.562;2023-08-06T08:41:36;98006.50;;;16.77;100.00
57708;BME280;43540;51.690;9.562;2023-08-06T08:44:08;98033.28;;;17.02;100.00
57708;BME280;43540;51.690;9.562;2023-08-06T08:46:40;98111.81;;;17.43;100.00
57708;BME280;43540;51.690;9.562;2023-08-06T08:49:11;98029.53;;;16.90;100.00
57708;BME280;43540;51.690;9.562;2023-08-06T08:51:39;98000.81;;;16.80;100.00
57708;BME280;43540;51.690;9.562;2023-08-06T08:54:07;98028.53;;;16.91;100.00
57708;BME280;43540;51.690;9.562;2023-08-06T08:56:35;98099.59;;;17.48;100.00
57708;BME280;43540;51.690;9.562;2023-08-06T08:59:02;98057.19;;;17.42;100.00
57708;BME280;43540;51.690;9.562;2023-08-06T09:01:30;98118.44;;;18.00;100.00
57708;BME280;43540;51.690;9.562;2023-08-06T09:03:58;98039.72;;;17.74;100.00
57708;BME280;43540;51.690;9.562;2023-08-06T09:06:26;98035.06;;;17.76;100.00
57708;BME280;43540;51.690;9.562;2023-08-06T09:09:04;97968.75;;;17.43;100.00
57708;BME280;43540;51.690;9.562;2023-08-06T09:11:43;97972.25;;;17.56;100.00
57708;BME280;43540;51.690;9.562;2023-08-06T09:14:11;98030.75;;;18.21;100.00
57708;BME280;43540;51.690;9.562;2023-08-06T09:16:38;98104.09;;;18.80;100.00
57708;BME280;43540;51.690;9.562;2023-08-06T09:19:13;98101.22;;;18.88;100.00
57708;BME280;43540;51.690;9.562;2023-08-06T09:21:42;98091.84;;;18.86;100.00
57708;BME280;43540;51.690;9.562;2023-08-06T09:24:12;98098.16;;;18.91;100.00
57708;BME280;43540;51.690;9.562;2023-08-06T09:26:43;98102.25;;;18.94;100.00
57708;BME280;43540;51.690;9.562;2023-08-06T09:29:15;98031.94;;;18.38;100.00
57708;BME280;43540;51.690;9.562;2023-08-06T09:31:43;98102.63;;;18.97;100.00
57708;BME280;43540;51.690;9.562;2023-08-06T09:36:52;98103.72;;;19.28;100.00
57708;BME280;43540;51.690;9.562;2023-08-06T09:39:21;98033.91;;;19.14;100.00
57708;BME280;43540;51.690;9.562;2023-08-06T09:41:55;98029.56;;;19.20;100.00
57708;BME280;43540;51.690;9.562;2023-08-06T09:44:25;98082.13;;;19.56;100.00
57708;BME280;43540;51.690;9.562;2023-08-06T09:46:57;98001.06;;;19.40;100.00
57708;BME280;43540;51.690;9.562;2023-08-06T09:52:00;98014.03;;;19.55;100.00
57708;BME280;43540;51.690;9.562;2023-08-06T09:54:27;98093.69;;;20.00;100.00
57708;BME280;43540;51.690;9.562;2023-08-06T09:56:56;98022.91;;;19.42;100.00
57708;BME280;43540;51.690;9.562;2023-08-06T09:59:24;98094.22;;;19.83;100.00
57708;BME280;43540;51.690;9.562;2023-08-06T10:01:54;98101.19;;;19.84;100.00
57708;BME280;43540;51.690;9.562;2023-08-06T10:04:23;98089.78;;;19.77;100.00
57708;BME280;43540;51.690;9.562;2023-08-06T10:06:54;98070.72;;;19.80;100.00
57708;BME280;43540;51.690;9.562;2023-08-06T10:09:22;98008.63;;;19.37;100.00
57708;BME280;43540;51.690;9.562;2023-08-06T10:11:51;98001.31;;;19.32;100.00
57708;BME280;43540;51.690;9.562;2023-08-06T10:14:28;97989.88;;;19.63;100.00
57708;BME280;43540;51.690;9.562;2023-08-06T10:16:57;98065.31;;;20.37;100.00
57708;BME280;43540;51.690;9.562;2023-08-06T10:19:26;98045.41;;;20.46;100.00
57708;BME280;43540;51.690;9.562;2023-08-06T10:22:23;98028.97;;;20.31;100.00
57708;BME280;43540;51.690;9.562;2023-08-06T10:24:58;98034.59;;;20.41;100.00
57708;BME280;43540;51.690;9.562;2023-08-06T10:27:36;97986.16;;;20.14;100.00
57708;BME280;43540;51.690;9.562;2023-08-06T10:30:29;98058.44;;;20.72;100.00
57708;BME280;43540;51.690;9.562;2023-08-06T10:33:01;98032.63;;;20.55;100.00
57708;BME280;43540;51.690;9.562;2023-08-06T10:35:40;98048.53;;;20.80;100.00
57708;BME280;43540;51.690;9.562;2023-08-06T10:38:15;98053.84;;;20.61;100.00
57708;BME280;43540;51.690;9.562;2023-08-06T10:46:02;97954.28;;;19.64;98.47
57708;BME280;43540;51.690;9.562;2023-08-06T10:52:17;98034.53;;;20.48;99.67
57708;BME280;43540;51.690;9.562;2023-08-06T10:54:55;98045.00;;;20.42;96.40
57708;BME280;43540;51.690;9.562;2023-08-06T10:57:23;97973.66;;;19.96;94.91
57708;BME280;43540;51.690;9.562;2023-08-06T10:59:54;98016.75;;;20.23;99.89
57708;BME280;43540;51.690;9.562;2023-08-06T11:02:43;98006.47;;;20.27;100.00
57708;BME280;43540;51.690;9.562;2023-08-06T11:05:14;98036.34;;;20.29;100.00
57708;BME280;43540;51.690;9.562;2023-08-06T11:07:42;97955.41;;;19.75;100.00
57708;BME280;43540;51.690;9.562;2023-08-06T11:10:11;98026.28;;;20.12;91.80
57708;BME280;43540;51.690;9.562;2023-08-06T11:12:39;98023.44;;;20.07;100.00
57708;BME280;43540;51.690;9.562;2023-08-06T11:15:09;98022.38;;;20.33;100.00
57708;BME280;43540;51.690;9.562;2023-08-06T11:17:40;98009.41;;;20.62;90.13
57708;BME280;43540;51.690;9.562;2023-08-06T11:20:08;97967.91;;;20.54;100.00
57708;BME280;43540;51.690;9.562;2023-08-06T11:22:38;97999.19;;;20.77;86.79
57708;BME280;43540;51.690;9.562;2023-08-06T11:25:06;97885.19;;;19.82;83.58
57708;BME280;43540;51.690;9.562;2023-08-06T11:27:33;97925.56;;;20.16;92.45
57708;BME280;43540;51.690;9.562;2023-08-06T11:30:00;97926.16;;;20.55;87.13
57708;BME280;43540;51.690;9.562;2023-08-06T11:32:27;97922.78;;;20.78;99.37
57708;BME280;43540;51.690;9.562;2023-08-06T11:34:55;97992.59;;;21.28;92.87
57708;BME280;43540;51.690;9.562;2023-08-06T11:37:22;97997.84;;;21.16;96.38
57708;BME280;43540;51.690;9.562;2023-08-06T11:39:51;97862.16;;;19.95;82.90
57708;BME280;43540;51.690;9.562;2023-08-06T11:42:18;97989.34;;;20.78;90.86
57708;BME280;43540;51.690;9.562;2023-08-06T11:44:46;97993.34;;;20.87;92.29
57708;BME280;43540;51.690;9.562;2023-08-06T11:47:15;97923.13;;;20.33;80.16
57708;BME280;43540;51.690;9.562;2023-08-06T11:49:47;97911.66;;;20.32;82.84
57708;BME280;43540;51.690;9.562;2023-08-06T11:52:24;97994.28;;;20.92;83.44
57708;BME280;43540;51.690;9.562;2023-08-06T11:55:07;97993.56;;;21.15;84.30
57708;BME280;43540;51.690;9.562;2023-08-06T11:57:38;97987.03;;;21.11;88.22
57708;BME280;43540;51.690;9.562;2023-08-06T12:00:07;97985.00;;;21.13;74.84
57708;BME280;43540;51.690;9.562;2023-08-06T12:02:35;97913.94;;;20.47;82.49
57708;BME280;43540;51.690;9.562;2023-08-06T12:07:37;97909.09;;;20.44;94.32
57708;BME280;43540;51.690;9.562;2023-08-06T12:10:05;97911.88;;;20.31;96.57
57708;BME280;43540;51.690;9.562;2023-08-06T12:12:32;97950.78;;;20.50;94.07
57708;BME280;43540;51.690;9.562;2023-08-06T12:14:59;97922.72;;;20.11;98.06
57708;BME280;43540;51.690;9.562;2023-08-06T12:17:26;97989.00;;;20.56;100.00
57708;BME280;43540;51.690;9.562;2023-08-06T12:19:56;97888.03;;;20.06;97.66
57708;BME280;43540;51.690;9.562;2023-08-06T12:22:22;97986.56;;;20.54;96.64
57708;BME280;43540;51.690;9.562;2023-08-06T12:24:50;97973.47;;;20.53;96.13
57708;BME280;43540;51.690;9.562;2023-08-06T12:27:23;97929.75;;;20.42;93.60
57708;BME280;43540;51.690;9.562;2023-08-06T12:29:56;97886.59;;;20.40;95.58
57708;BME280;43540;51.690;9.562;2023-08-06T12:32:30;97969.47;;;20.62;89.49
57708;BME280;43540;51.690;9.562;2023-08-06T12:35:01;97968.66;;;20.61;100.00
57708;BME280;43540;51.690;9.562;2023-08-06T12:37:28;97962.50;;;20.79;94.82
57708;BME280;43540;51.690;9.562;2023-08-06T12:40:24;97962.84;;;20.83;97.02
57708;BME280;43540;51.690;9.562;2023-08-06T12:55:30;97954.75;;;21.61;91.09
57708;BME280;43540;51.690;9.562;2023-08-06T12:58:02;97902.41;;;21.13;90.82
57708;BME280;43540;51.690;9.562;2023-08-06T13:00:28;97889.84;;;21.44;88.04
57708;BME280;43540;51.690;9.562;2023-08-06T13:02:55;97912.47;;;21.76;83.39
57708;BME280;43540;51.690;9.562;2023-08-06T13:05:22;97856.44;;;21.29;76.13
57708;BME280;43540;51.690;9.562;2023-08-06T13:07:50;97889.41;;;21.17;76.64
57708;BME280;43540;51.690;9.562;2023-08-06T13:10:17;97890.78;;;20.96;77.66
57708;BME280;43540;51.690;9.562;2023-08-06T13:12:44;97895.84;;;20.86;74.30
57708;BME280;43540;51.690;9.562;2023-08-06T13:15:11;97827.91;;;20.35;78.73
57708;BME280;43540;51.690;9.562;2023-08-06T13:17:40;97963.22;;;21.16;81.56
57708;BME280;43540;51.690;9.562;2023-08-06T13:20:10;97954.72;;;21.08;82.81
57708;BME280;43540;51.690;9.562;2023-08-06T13:22:37;97855.84;;;20.44;81.97
57708;BME280;43540;51.690;9.562;2023-08-06T13:25:04;97901.06;;;20.62;87.80
57708;BME280;43540;51.690;9.562;2023-08-06T13:27:31;97961.41;;;20.98;89.29
57708;BME280;43540;51.690;9.562;2023-08-06T13:29:59;97962.41;;;20.86;86.70
57708;BME280;43540;51.690;9.562;2023-08-06T13:32:28;97906.13;;;20.52;88.11
57708;BME280;43540;51.690;9.562;2023-08-06T13:34:58;97905.63;;;20.43;90.88
57708;BME280;43540;51.690;9.562;2023-08-06T13:37:25;97964.19;;;20.73;96.06